ADDS METAR Data INFO
IDs: Format: Raw Decoded Include TAF

Data at: 2020 UTC 20 Jul 2018

KCCR 201953Z 33015KT 10SM CLR 28/15 A2989 RMK AO2 SLP107 T02780150
KCCR 201853Z 33014KT 10SM CLR 27/14 A2990 RMK AO2 SLP110 T02670144
KCCR 201753Z 31012KT 10SM CLR 25/14 A2990 RMK AO2 SLP111 T02500139 10250 20156 51003
KCCR 201653Z 29008KT 10SM CLR 23/14 A2990 RMK AO2 SLP110 T02280139
KCCR 201553Z 28010KT 10SM CLR 20/13 A2990 RMK AO2 SLP111 T02000133
KCCR 201453Z 28007KT 10SM FEW012 17/13 A2989 RMK AO2 SLP108 T01670128 53008
KCCR 201353Z 27008KT 10SM CLR 16/13 A2988 RMK AO2 SLP104 T01610128
KCCR 201253Z AUTO 30006KT 10SM CLR 16/13 A2988 RMK AO2 SLP103 T01560128
KCCR 201153Z AUTO 29007KT 10SM CLR 16/12 A2987 RMK AO2 SLP100 T01560122 10194 20156 51008
KCCR 201053Z AUTO 29007KT 10SM CLR 16/12 A2987 RMK AO2 SLP099 T01610122
KCCR 200953Z AUTO 30006KT 10SM CLR 17/12 A2985 RMK AO2 SLP094 T01670117
KCCR 200853Z AUTO 32005KT 10SM CLR 17/12 A2984 RMK AO2 SLP092 T01720117 56002
KCCR 200753Z AUTO 29008KT 10SM CLR 18/11 A2984 RMK AO2 SLP092 T01780106 403560156
KCCR 200653Z AUTO 31010KT 10SM CLR 18/11 A2984 RMK AO2 SLP092 T01830106
KCCR 200553Z AUTO 31008KT 10SM CLR 19/09 A2985 RMK AO2 SLP094 T01940089 10350 20194 51011
KCCR 200453Z 29006KT 10SM CLR 22/08 A2985 RMK AO2 SLP094 T02220078
KCCR 200353Z 28006KT 10SM CLR 24/08 A2983 RMK AO2 SLP088 T02390078
KCCR 200253Z 27009KT 10SM CLR 28/08 A2982 RMK AO2 SLP083 T02780078 53000
KCCR 200153Z 26007KT 10SM CLR 33/07 A2981 RMK AO2 SLP082 T03280067
KCCR 200053Z 28007KT 10SM CLR 34/03 A2981 RMK AO2 SLP082 T03440028
KCCR 192353Z 27012KT 10SM CLR 34/06 A2981 RMK AO2 SLP083 T03440061 10356 20244 56018
KCCR 192253Z 28010G19KT 10SM CLR 35/06 A2983 RMK AO2 SLP088 T03500056
KCCR 192153Z 31010KT 10SM CLR 33/10 A2984 RMK AO2 SLP091 T03330100
KCCR 192053Z 31012KT 10SM CLR 31/12 A2987 RMK AO2 SLP101 T03110117 58018
KCCR 191953Z 31011KT 10SM CLR 28/13 A2989 RMK AO2 SLP110 T02780128
KCCR 191853Z 33011KT 10SM CLR 26/13 A2991 RMK AO2 SLP116 T02610133
KCCR 191753Z 32009KT 10SM CLR 24/13 A2992 RMK AO2 SLP119 T02440128 10244 20156 58002
KCCR 191653Z 31011KT 10SM CLR 21/12 A2993 RMK AO2 SLP122 T02110122
KCCR 191553Z AUTO 29010KT 10SM CLR 19/12 A2994 RMK AO2 SLP124 T01890122
KCCR 191453Z AUTO 28008KT 10SM CLR 17/12 A2993 RMK AO2 SLP122 T01720122 53012
KCCR 191353Z AUTO 30009KT 10SM CLR 17/13 A2991 RMK AO2 SLP115 T01670128
KCCR 191253Z AUTO 31003KT 10SM CLR 16/12 A2990 RMK AO2 SLP111 T01560122
KCCR 191153Z AUTO 33004KT 10SM CLR 16/12 A2990 RMK AO2 SLP110 T01560122 10189 20156 53002
KCCR 191053Z AUTO 31003KT 10SM CLR 16/12 A2989 RMK AO2 SLP108 T01560122
KCCR 190953Z AUTO 31006KT 10SM CLR 16/12 A2989 RMK AO2 SLP108 T01610122
KCCR 190853Z AUTO 30005KT 10SM CLR 17/12 A2989 RMK AO2 SLP108 T01670122 58002